createdAt,value
2022-10-06T00:02:13.099Z,1.17
2022-10-06T00:04:39.623Z,1.20
2022-10-06T00:07:06.125Z,1.50
2022-10-06T00:09:32.737Z,1.20
2022-10-06T00:11:59.287Z,0.98
2022-10-06T00:14:26.380Z,1.10
2022-10-06T00:16:53.059Z,1.20
2022-10-06T00:19:19.588Z,1.30
2022-10-06T00:21:46.132Z,1.20
2022-10-06T00:24:12.680Z,1.33
2022-10-06T00:26:39.183Z,1.30
2022-10-06T00:29:05.844Z,1.88
2022-10-06T00:31:34.512Z,1.73
2022-10-06T00:34:01.124Z,1.63
2022-10-06T00:36:28.452Z,1.40
2022-10-06T00:38:56.494Z,1.50
2022-10-06T00:41:23.035Z,1.52
2022-10-06T00:43:54.740Z,1.73
2022-10-06T00:46:35.593Z,1.85
2022-10-06T00:49:06.917Z,2.08
2022-10-06T00:51:34.675Z,2.20
2022-10-06T00:54:01.401Z,2.17
2022-10-06T00:56:28.418Z,2.35
2022-10-06T00:58:55.000Z,2.33
2022-10-06T01:01:21.628Z,2.58
2022-10-06T01:03:55.686Z,2.50
2022-10-06T01:06:22.219Z,2.53
2022-10-06T01:08:49.072Z,2.58
2022-10-06T01:11:16.262Z,3.25
2022-10-06T01:13:44.242Z,3.80
2022-10-06T01:16:19.737Z,4.38
2022-10-06T01:18:51.729Z,3.53
2022-10-06T01:21:39.764Z,3.55
2022-10-06T01:24:12.265Z,3.63
2022-10-06T01:26:42.423Z,2.90
2022-10-06T01:29:09.549Z,3.30
2022-10-06T01:31:37.680Z,3.30
2022-10-06T01:34:04.680Z,3.28
2022-10-06T01:36:31.181Z,3.25
2022-10-06T01:38:57.806Z,3.08
2022-10-06T01:41:25.532Z,2.95
2022-10-06T01:43:52.239Z,2.90
2022-10-06T01:46:21.162Z,2.60
2022-10-06T01:48:48.019Z,2.22
2022-10-06T01:51:16.222Z,3.30
2022-10-06T01:53:43.121Z,3.10
2022-10-06T01:56:09.872Z,3.00
2022-10-06T01:58:36.497Z,2.22
2022-10-06T02:01:09.736Z,2.42
2022-10-06T02:03:38.087Z,2.22
2022-10-06T02:06:05.091Z,2.30
2022-10-06T02:08:33.037Z,2.67
2022-10-06T02:11:09.720Z,2.72
2022-10-06T02:13:40.658Z,3.58
2022-10-06T02:16:08.492Z,2.60
2022-10-06T02:18:35.722Z,2.90
2022-10-06T02:21:02.945Z,2.42
2022-10-06T02:23:30.268Z,2.92
2022-10-06T02:26:01.155Z,3.13
2022-10-06T02:28:29.143Z,2.45
2022-10-06T02:31:01.151Z,2.90
2022-10-06T02:33:27.974Z,2.60
2022-10-06T02:35:55.932Z,2.65
2022-10-06T02:38:24.394Z,2.97
2022-10-06T02:40:51.685Z,3.10
2022-10-06T02:43:18.390Z,2.60
2022-10-06T02:45:55.962Z,2.95
2022-10-06T02:48:24.775Z,2.45
2022-10-06T02:51:02.816Z,3.00
2022-10-06T02:53:29.954Z,2.28
2022-10-06T02:56:01.408Z,2.30
2022-10-06T03:01:03.389Z,2.97
2022-10-06T03:03:30.847Z,3.15
2022-10-06T03:06:21.659Z,2.65
2022-10-06T03:08:58.541Z,2.20
2022-10-06T03:11:30.697Z,2.45
2022-10-06T03:13:57.680Z,2.25
2022-10-06T03:16:30.138Z,2.08
2022-10-06T03:18:58.876Z,2.20
2022-10-06T03:21:30.331Z,2.05
2022-10-06T03:23:57.597Z,2.70
2022-10-06T03:26:28.428Z,2.08
2022-10-06T03:28:56.165Z,2.70
2022-10-06T03:31:24.318Z,3.47
2022-10-06T03:33:52.559Z,2.70
2022-10-06T03:36:21.108Z,2.22
2022-10-06T03:38:48.232Z,2.08
2022-10-06T03:41:19.484Z,2.10
2022-10-06T03:46:16.198Z,2.00
2022-10-06T03:48:42.835Z,2.38
2022-10-06T03:51:14.307Z,1.88
2022-10-06T03:53:44.285Z,2.00
2022-10-06T03:56:16.192Z,2.63
2022-10-06T03:58:45.301Z,2.85
2022-10-06T04:01:14.666Z,2.50
2022-10-06T04:03:41.513Z,2.15
2022-10-06T04:06:12.137Z,2.78
2022-10-06T04:08:39.404Z,2.17
2022-10-06T04:11:33.411Z,2.38
2022-10-06T04:14:05.547Z,2.15
2022-10-06T04:16:40.604Z,2.10
2022-10-06T04:19:09.937Z,2.55
2022-10-06T04:21:40.502Z,2.17
2022-10-06T04:24:10.735Z,2.13
2022-10-06T04:26:41.837Z,2.35
2022-10-06T04:29:08.366Z,2.17
2022-10-06T04:31:37.070Z,2.17
2022-10-06T04:34:06.055Z,1.98
2022-10-06T04:36:36.183Z,2.50
2022-10-06T04:39:04.406Z,1.83
2022-10-06T04:41:35.672Z,2.85
2022-10-06T04:44:05.967Z,2.58
2022-10-06T04:46:48.955Z,2.67
2022-10-06T04:49:20.662Z,2.42
2022-10-06T04:51:50.369Z,2.75
2022-10-06T04:54:18.892Z,3.00
2022-10-06T04:56:46.920Z,2.58
2022-10-06T04:59:15.392Z,2.88
2022-10-06T05:01:43.941Z,2.42
2022-10-06T05:04:12.568Z,2.42
2022-10-06T05:06:41.540Z,2.30
2022-10-06T05:09:14.566Z,2.20
2022-10-06T05:11:48.261Z,2.20
2022-10-06T05:14:17.924Z,2.60
2022-10-06T05:16:47.372Z,2.13
2022-10-06T05:19:14.657Z,2.38
2022-10-06T05:21:41.886Z,2.38
2022-10-06T05:24:11.188Z,3.03
2022-10-06T05:26:38.451Z,2.55
2022-10-06T05:29:08.892Z,2.00
2022-10-06T05:31:38.879Z,2.75
2022-10-06T05:34:06.097Z,2.45
2022-10-06T05:36:33.902Z,2.28
2022-10-06T05:39:01.477Z,2.70
2022-10-06T05:41:34.629Z,2.97
2022-10-06T05:44:04.449Z,2.75
2022-10-06T05:46:33.660Z,2.63
2022-10-06T05:49:07.789Z,2.50
2022-10-06T05:51:35.948Z,2.60
2022-10-06T05:54:07.253Z,2.25
2022-10-06T05:56:35.980Z,2.42
2022-10-06T05:59:03.816Z,3.10
2022-10-06T06:01:40.228Z,2.75
2022-10-06T06:04:13.600Z,2.38
2022-10-06T06:09:18.295Z,2.40
2022-10-06T06:11:48.778Z,2.15
2022-10-06T06:14:19.203Z,2.40
2022-10-06T06:16:48.576Z,3.25
2022-10-06T06:19:15.133Z,3.20
2022-10-06T06:21:43.574Z,2.85
2022-10-06T06:24:10.894Z,3.45
2022-10-06T06:26:37.931Z,2.33
2022-10-06T06:29:06.172Z,2.88
2022-10-06T06:31:40.141Z,2.13
2022-10-06T06:34:07.759Z,3.25
2022-10-06T06:36:37.211Z,2.83
2022-10-06T06:39:09.135Z,3.10
2022-10-06T06:41:38.676Z,3.47
2022-10-06T06:44:11.591Z,3.38
2022-10-06T06:46:44.723Z,2.67
2022-10-06T06:49:16.378Z,2.58
2022-10-06T06:51:50.369Z,2.45
2022-10-06T06:54:19.742Z,2.55
2022-10-06T06:56:51.852Z,2.60
2022-10-06T06:59:20.389Z,2.42
2022-10-06T07:01:49.775Z,3.53
2022-10-06T07:04:19.736Z,2.63
2022-10-06T07:06:57.861Z,3.22
2022-10-06T07:09:28.255Z,2.80
2022-10-06T07:12:10.243Z,3.42
2022-10-06T07:14:56.744Z,3.17
2022-10-06T07:17:42.966Z,4.03
2022-10-06T07:20:28.859Z,3.35
2022-10-06T07:23:16.154Z,3.28
2022-10-06T07:25:42.727Z,2.67
2022-10-06T07:28:12.182Z,2.75
2022-10-06T07:30:41.078Z,2.88
2022-10-06T07:33:17.974Z,2.85
2022-10-06T07:35:45.268Z,3.00
2022-10-06T07:38:13.781Z,2.55
2022-10-06T07:41:14.660Z,3.38
2022-10-06T07:43:33.668Z,2.72
2022-10-06T07:46:02.195Z,2.95
2022-10-06T07:48:39.005Z,3.20
2022-10-06T07:51:13.749Z,3.65
2022-10-06T07:53:41.413Z,2.47
2022-10-06T07:56:20.646Z,2.50
2022-10-06T07:58:51.327Z,4.83
2022-10-06T08:01:20.193Z,3.75
2022-10-06T08:03:48.502Z,3.28
2022-10-06T08:06:17.101Z,3.30
2022-10-06T08:08:47.109Z,3.47
2022-10-06T08:11:17.129Z,2.90
2022-10-06T08:13:45.280Z,3.17
2022-10-06T08:16:15.934Z,3.40
2022-10-06T08:18:47.211Z,3.03
2022-10-06T08:23:43.171Z,3.00
2022-10-06T08:26:11.636Z,3.20
2022-10-06T08:28:38.661Z,3.45
2022-10-06T08:31:11.893Z,2.40
2022-10-06T08:33:39.538Z,2.65
2022-10-06T08:36:08.580Z,2.58
2022-10-06T08:38:37.172Z,2.38
2022-10-06T08:41:35.407Z,3.08
2022-10-06T08:44:06.950Z,2.47
2022-10-06T08:46:50.283Z,2.83
2022-10-06T08:49:22.000Z,2.58
2022-10-06T08:52:30.533Z,3.03
2022-10-06T08:55:21.307Z,2.65
2022-10-06T08:58:19.899Z,2.97
2022-10-06T09:00:46.472Z,2.50
2022-10-06T09:03:18.235Z,3.38
2022-10-06T09:05:44.814Z,3.25
2022-10-06T09:08:38.781Z,2.78
2022-10-06T09:11:28.001Z,3.00
2022-10-06T09:14:17.219Z,2.90
2022-10-06T09:16:49.031Z,2.90
2022-10-06T09:19:25.775Z,2.75
2022-10-06T09:21:54.881Z,2.90
2022-10-06T09:24:35.014Z,3.00
2022-10-06T09:27:16.598Z,2.70
2022-10-06T09:29:43.129Z,3.08
2022-10-06T09:32:10.912Z,2.80
2022-10-06T09:34:40.841Z,3.15
2022-10-06T09:37:12.819Z,2.67
2022-10-06T09:39:44.933Z,2.70
2022-10-06T09:42:35.739Z,3.08
2022-10-06T09:45:04.905Z,2.28
2022-10-06T09:47:38.482Z,2.22
2022-10-06T09:50:25.391Z,3.05
2022-10-06T09:52:57.670Z,3.13
2022-10-06T09:55:28.469Z,2.75
2022-10-06T09:57:57.117Z,2.50
2022-10-06T10:00:27.793Z,3.40
2022-10-06T10:02:59.977Z,2.75
2022-10-06T10:05:29.156Z,2.83
2022-10-06T10:08:14.074Z,2.97
2022-10-06T10:10:41.155Z,2.72
2022-10-06T10:13:20.943Z,2.13
2022-10-06T10:15:55.919Z,1.83
2022-10-06T10:18:28.104Z,2.40
2022-10-06T10:21:05.310Z,2.20
2022-10-06T10:23:42.047Z,2.05
2022-10-06T10:26:26.918Z,2.25
2022-10-06T10:29:21.479Z,2.22
2022-10-06T10:31:55.467Z,2.33
2022-10-06T10:34:46.748Z,2.40
2022-10-06T10:37:24.205Z,2.03
2022-10-06T10:40:17.343Z,1.67
2022-10-06T10:42:51.782Z,2.00
2022-10-06T10:45:34.316Z,2.38
2022-10-06T10:48:06.645Z,2.15
2022-10-06T10:50:49.768Z,2.10
2022-10-06T10:53:36.548Z,1.90
2022-10-06T10:56:08.319Z,1.73
2022-10-06T10:58:40.528Z,1.65
2022-10-06T11:01:14.268Z,1.80
2022-10-06T11:03:41.856Z,1.63
2022-10-06T11:06:27.236Z,1.92
2022-10-06T11:09:04.022Z,1.58
2022-10-06T11:11:54.987Z,1.90
2022-10-06T11:14:36.099Z,1.83
2022-10-06T11:17:44.331Z,2.33
2022-10-06T11:20:29.467Z,2.35
2022-10-06T11:23:32.184Z,1.73
2022-10-06T11:26:13.328Z,1.48
2022-10-06T11:28:45.270Z,1.70
2022-10-06T11:31:30.520Z,1.30
2022-10-06T11:34:00.625Z,1.20
2022-10-06T11:36:48.724Z,1.40
2022-10-06T11:39:30.783Z,1.65
2022-10-06T11:42:11.167Z,2.28
2022-10-06T11:44:42.108Z,1.40
2022-10-06T11:47:12.057Z,1.70
2022-10-06T11:49:51.338Z,1.50
2022-10-06T11:52:17.763Z,2.17
2022-10-06T11:54:52.460Z,1.70
2022-10-06T11:57:24.018Z,1.77
2022-10-06T12:00:03.222Z,1.48
2022-10-06T12:02:33.505Z,1.80
2022-10-06T12:08:34.810Z,1.38
2022-10-06T12:11:01.848Z,1.50
2022-10-06T12:19:50.465Z,2.00
2022-10-06T12:22:50.246Z,1.85
2022-10-06T12:25:46.980Z,1.80
2022-10-06T12:28:33.894Z,1.27
2022-10-06T12:31:25.381Z,1.60
2022-10-06T12:33:52.508Z,1.40
2022-10-06T12:36:22.619Z,1.45
2022-10-06T12:39:07.013Z,1.35
2022-10-06T12:42:01.993Z,2.03
2022-10-06T12:44:40.684Z,1.60
2022-10-06T12:47:21.043Z,1.38
2022-10-06T12:49:59.932Z,1.80
2022-10-06T12:52:35.160Z,1.58
2022-10-06T12:55:14.492Z,1.55
2022-10-06T12:57:50.667Z,1.52
2022-10-06T13:00:23.890Z,2.15
2022-10-06T13:02:53.641Z,1.30
2022-10-06T13:05:20.227Z,1.75
2022-10-06T13:08:01.241Z,1.42
2022-10-06T13:10:32.381Z,1.80
2022-10-06T13:12:59.612Z,1.48
2022-10-06T13:15:34.545Z,1.60
2022-10-06T13:18:10.615Z,1.80
2022-10-06T13:20:40.813Z,1.30
2022-10-06T13:23:26.730Z,1.60
2022-10-06T13:26:01.372Z,1.92
2022-10-06T13:28:36.900Z,1.58
2022-10-06T13:31:22.928Z,1.98
2022-10-06T13:34:13.056Z,1.65
2022-10-06T13:36:41.414Z,1.60
2022-10-06T13:39:13.925Z,1.63
2022-10-06T13:41:57.413Z,1.65
2022-10-06T13:44:26.764Z,1.80
2022-10-06T13:46:56.018Z,1.48
2022-10-06T13:49:26.159Z,1.63
2022-10-06T13:51:54.112Z,1.35
2022-10-06T13:54:20.829Z,1.77
2022-10-06T13:56:47.403Z,1.58
2022-10-06T13:59:30.975Z,1.65
2022-10-06T14:02:19.467Z,1.42
2022-10-06T14:05:19.917Z,1.38
2022-10-06T14:07:47.384Z,1.90
2022-10-06T14:10:19.174Z,1.92
2022-10-06T14:12:46.443Z,1.42
2022-10-06T14:15:22.605Z,1.60
2022-10-06T14:17:59.819Z,1.73
2022-10-06T14:20:42.271Z,1.80
2022-10-06T14:23:43.904Z,1.23
2022-10-06T14:28:47.177Z,1.30
2022-10-06T14:31:14.868Z,1.60
2022-10-06T14:33:41.889Z,1.58
2022-10-06T14:36:19.019Z,1.48
2022-10-06T14:38:49.468Z,1.50
2022-10-06T14:41:19.290Z,1.00
2022-10-06T14:43:47.457Z,1.52
2022-10-06T14:46:15.447Z,1.50
2022-10-06T14:48:42.081Z,1.55
2022-10-06T14:51:09.488Z,1.30
2022-10-06T14:53:39.334Z,1.30
2022-10-06T14:56:10.219Z,1.73
2022-10-06T14:58:38.660Z,1.00
2022-10-06T15:01:09.124Z,1.30
2022-10-06T15:03:36.090Z,1.40
2022-10-06T15:06:23.756Z,1.50
2022-10-06T15:08:55.095Z,1.30
2022-10-06T15:11:22.714Z,1.70
2022-10-06T15:13:49.497Z,1.30
2022-10-06T15:16:17.456Z,1.23
2022-10-06T15:18:44.639Z,1.38
2022-10-06T15:21:11.621Z,1.25
2022-10-06T15:23:38.962Z,1.30
2022-10-06T15:26:24.685Z,1.60
2022-10-06T15:29:03.302Z,1.50
2022-10-06T15:31:42.871Z,1.88
2022-10-06T15:34:12.108Z,1.65
2022-10-06T15:36:40.548Z,1.38
2022-10-06T15:39:13.890Z,2.17
2022-10-06T15:41:42.735Z,1.88
2022-10-06T15:44:10.409Z,1.25
2022-10-06T15:46:38.551Z,1.30
2022-10-06T15:49:16.422Z,2.05
2022-10-06T15:51:45.597Z,1.67
2022-10-06T15:54:13.349Z,1.45
2022-10-06T15:56:39.934Z,1.58
2022-10-06T15:59:06.775Z,1.63
2022-10-06T16:01:43.324Z,1.83
2022-10-06T16:04:25.304Z,1.50
2022-10-06T16:06:55.948Z,1.30
2022-10-06T16:09:25.046Z,1.33
2022-10-06T16:11:52.315Z,1.35
2022-10-06T16:14:19.202Z,1.60
2022-10-06T16:16:46.760Z,1.60
2022-10-06T16:19:14.319Z,1.65
2022-10-06T16:21:41.072Z,2.03
2022-10-06T16:24:07.653Z,1.35
2022-10-06T16:26:34.423Z,1.23
2022-10-06T16:29:00.981Z,1.38
2022-10-06T16:31:27.574Z,1.42
2022-10-06T16:33:54.149Z,1.50
2022-10-06T16:36:20.798Z,1.25
2022-10-06T16:38:51.135Z,1.38
2022-10-06T16:41:18.233Z,1.13
2022-10-06T16:43:45.748Z,1.70
2022-10-06T16:46:18.626Z,1.40
2022-10-06T16:48:46.782Z,1.30
2022-10-06T16:51:18.305Z,1.30
2022-10-06T16:54:01.735Z,1.98
2022-10-06T16:56:48.479Z,1.60
2022-10-06T16:59:16.829Z,1.58
2022-10-06T17:01:46.148Z,1.40
2022-10-06T17:04:20.826Z,1.40
2022-10-06T17:06:50.119Z,1.83
2022-10-06T17:09:18.890Z,1.42
2022-10-06T17:11:54.454Z,1.70
2022-10-06T17:14:21.771Z,1.55
2022-10-06T17:16:50.759Z,1.67
2022-10-06T17:19:18.954Z,1.70
2022-10-06T17:21:48.699Z,1.65
2022-10-06T17:24:19.725Z,1.80
2022-10-06T17:26:49.623Z,1.67
2022-10-06T17:29:21.360Z,2.25
2022-10-06T17:31:50.793Z,1.63
2022-10-06T17:34:21.471Z,3.47
2022-10-06T17:39:20.491Z,2.10
2022-10-06T17:41:48.573Z,2.05
2022-10-06T17:44:18.811Z,1.67
2022-10-06T17:46:46.000Z,2.63
2022-10-06T17:49:14.994Z,1.98
2022-10-06T17:51:45.067Z,1.98
2022-10-06T17:54:16.141Z,2.40
2022-10-06T17:56:45.643Z,1.63
2022-10-06T17:59:36.567Z,2.15
2022-10-06T18:02:03.764Z,2.53
2022-10-06T18:04:33.040Z,2.28
2022-10-06T18:07:00.118Z,2.35
2022-10-06T18:09:29.961Z,1.70
2022-10-06T18:12:01.155Z,2.20
2022-10-06T18:14:32.326Z,2.38
2022-10-06T18:17:01.361Z,2.20
2022-10-06T18:19:35.511Z,2.15
2022-10-06T18:22:10.337Z,1.88
2022-10-06T18:24:37.696Z,2.00
2022-10-06T18:27:06.478Z,1.65
2022-10-06T18:29:37.847Z,2.08
2022-10-06T18:37:39.686Z,1.95
2022-10-06T18:40:09.700Z,2.33
2022-10-06T18:42:36.526Z,1.75
2022-10-06T18:45:22.282Z,1.58
2022-10-06T18:48:08.546Z,2.08
2022-10-06T18:50:35.420Z,2.00
2022-10-06T18:53:04.212Z,2.10
2022-10-06T18:55:31.681Z,2.00
2022-10-06T18:57:58.833Z,2.70
2022-10-06T19:00:26.358Z,2.17
2022-10-06T19:02:55.469Z,2.47
2022-10-06T19:05:23.126Z,2.72
2022-10-06T19:07:52.374Z,2.40
2022-10-06T19:10:19.435Z,2.00
2022-10-06T19:12:46.688Z,2.85
2022-10-06T19:15:16.544Z,2.25
2022-10-06T19:17:46.862Z,2.88
2022-10-06T19:20:13.662Z,2.53
2022-10-06T19:22:43.512Z,2.70
2022-10-06T19:25:10.311Z,2.40
2022-10-06T19:27:37.032Z,2.25
2022-10-06T19:30:04.425Z,2.95
2022-10-06T19:32:34.455Z,2.83
2022-10-06T19:35:01.242Z,2.35
2022-10-06T19:37:29.155Z,2.55
2022-10-06T19:39:55.897Z,2.10
2022-10-06T19:42:40.684Z,3.60
2022-10-06T19:45:08.214Z,2.45
2022-10-06T19:47:34.767Z,2.42
2022-10-06T19:50:05.873Z,2.08
2022-10-06T19:52:34.618Z,2.55
2022-10-06T19:55:01.102Z,2.85
2022-10-06T19:57:29.364Z,2.40
2022-10-06T19:59:56.004Z,2.33
2022-10-06T20:02:23.091Z,2.92
2022-10-06T20:04:50.430Z,2.63
2022-10-06T20:07:16.927Z,2.30
2022-10-06T20:09:44.037Z,2.78
2022-10-06T20:12:10.623Z,2.85
2022-10-06T20:14:37.218Z,2.80
2022-10-06T20:17:03.785Z,2.22
2022-10-06T20:19:30.976Z,2.72
2022-10-06T20:21:57.925Z,2.35
2022-10-06T20:24:24.864Z,2.25
2022-10-06T20:26:52.456Z,2.53
2022-10-06T20:29:22.843Z,2.22
2022-10-06T20:31:55.051Z,2.70
2022-10-06T20:34:24.509Z,2.22
2022-10-06T20:36:55.730Z,2.42
2022-10-06T20:39:41.646Z,2.50
2022-10-06T20:42:13.888Z,2.13
2022-10-06T20:44:42.254Z,2.83
2022-10-06T20:47:10.318Z,2.53
2022-10-06T20:49:36.934Z,2.13
2022-10-06T20:52:04.414Z,2.00
2022-10-06T20:54:34.513Z,2.55
2022-10-06T20:57:03.235Z,2.28
2022-10-06T20:59:29.944Z,2.13
2022-10-06T21:01:59.883Z,2.53
2022-10-06T21:04:30.210Z,2.70
2022-10-06T21:06:57.390Z,2.38
2022-10-06T21:09:28.670Z,2.20
2022-10-06T21:14:24.187Z,2.50
2022-10-06T21:16:51.893Z,2.90
2022-10-06T21:19:19.584Z,2.40
2022-10-06T21:21:52.225Z,2.58
2022-10-06T21:24:19.369Z,2.95
2022-10-06T21:26:46.150Z,3.13
2022-10-06T21:29:16.265Z,2.50
2022-10-06T21:31:44.187Z,2.50
2022-10-06T21:34:10.794Z,2.83
2022-10-06T21:36:37.846Z,2.58
2022-10-06T21:39:05.842Z,2.38
2022-10-06T21:41:38.603Z,2.45
2022-10-06T21:44:09.843Z,2.40
2022-10-06T21:49:06.783Z,3.05
2022-10-06T21:51:33.848Z,2.72
2022-10-06T21:54:01.329Z,2.28
2022-10-06T21:56:30.706Z,2.80
2022-10-06T21:58:58.026Z,3.00
2022-10-06T22:01:30.446Z,3.35
2022-10-06T22:03:58.528Z,2.90
2022-10-06T22:06:25.194Z,2.95
2022-10-06T22:08:52.020Z,2.80
2022-10-06T22:11:21.224Z,2.40
2022-10-06T22:13:50.075Z,3.58
2022-10-06T22:16:19.503Z,3.22
2022-10-06T22:18:46.793Z,2.40
2022-10-06T22:21:21.948Z,2.45
2022-10-06T22:23:59.976Z,3.17
2022-10-06T22:26:27.849Z,2.90
2022-10-06T22:28:55.959Z,3.15
2022-10-06T22:31:26.068Z,3.95
2022-10-06T22:33:57.805Z,2.65
2022-10-06T22:36:25.676Z,2.90
2022-10-06T22:38:52.799Z,2.95
2022-10-06T22:41:19.704Z,3.22
2022-10-06T22:43:46.405Z,2.80
2022-10-06T22:46:13.522Z,3.10
2022-10-06T22:48:40.645Z,2.78
2022-10-06T22:51:07.821Z,2.92
2022-10-06T22:53:34.664Z,3.10
2022-10-06T22:56:02.376Z,3.60
2022-10-06T22:58:29.387Z,3.30
2022-10-06T23:00:56.345Z,3.50
2022-10-06T23:03:23.517Z,3.78
2022-10-06T23:05:55.395Z,3.55
2022-10-06T23:08:22.132Z,4.60
2022-10-06T23:10:48.798Z,4.05
2022-10-06T23:13:15.607Z,3.75
2022-10-06T23:15:42.295Z,3.35
2022-10-06T23:18:09.128Z,3.72
2022-10-06T23:20:35.758Z,4.65
2022-10-06T23:23:02.509Z,4.32
2022-10-06T23:25:29.146Z,4.32
2022-10-06T23:27:55.766Z,4.65
2022-10-06T23:30:24.613Z,4.22
2022-10-06T23:32:51.332Z,3.78
2022-10-06T23:35:18.084Z,4.03
2022-10-06T23:37:44.821Z,3.78
2022-10-06T23:40:11.918Z,3.42
2022-10-06T23:42:38.774Z,4.50
2022-10-06T23:45:07.662Z,4.22
2022-10-06T23:47:34.343Z,3.95
2022-10-06T23:50:01.065Z,4.28
2022-10-06T23:52:27.864Z,4.85
2022-10-06T23:54:54.532Z,4.22
2022-10-06T23:57:21.668Z,4.15
2022-10-06T23:59:48.301Z,4.57
